Time;durP1;ratioP1;P1;durP2;ratioP2;P2;SDS_P1;SDS_P2;PMS_P1;PMS_P2;Temp;Humidity;BMP_temperature;BMP_pressure;BME280_temperature;BME280_humidity;BME280_pressure;Samples;Min_cycle;Max_cycle;Signal;HPM_P1;HPM_P2
2021/11/27 00:00:35;;;;;;;41.7;48.9;;;;;;;2.3;82.5;96360;;;;
2021/11/27 00:10:35;;;;;;;38.4;47;;;;;;;2.1;82.8;96370;;;;
2021/11/27 00:21:35;;;;;;;38.4;47;;;;;;;2.1;82.5;96380;;;;
2021/11/27 00:31:37;;;;;;;38.4;47;;;;;;;2.1;82.2;96400;;;;
2021/11/27 00:42:35;;;;;;;30.9;37.4;;;;;;;2;82.1;96420;;;;
2021/11/27 00:52:35;;;;;;;30.9;37.4;;;;;;;1.9;81.9;96420;;;;
2021/11/27 01:02:35;;;;;;;30.9;37.4;;;;;;;1.8;82;96430;;;;
2021/11/27 01:12:35;;;;;;;21.9;26.5;;;;;;;1.8;82;96420;;;;
2021/11/27 01:23:35;;;;;;;21.9;26.5;;;;;;;1.8;82;96450;;;;
2021/11/27 01:33:35;;;;;;;21.9;26.5;;;;;;;1.7;82;96430;;;;
2021/11/27 01:43:35;;;;;;;16.1;18.8;;;;;;;1.7;81.8;96430;;;;
2021/11/27 01:54:35;;;;;;;16.1;18.8;;;;;;;1.8;81.9;96430;;;;
2021/11/27 02:04:35;;;;;;;16.1;18.8;;;;;;;1.8;82;96410;;;;
2021/11/27 02:14:35;;;;;;;13.4;17.7;;;;;;;1.8;82;96410;;;;
2021/11/27 02:24:35;;;;;;;13.4;17.7;;;;;;;1.9;81.9;96410;;;;
2021/11/27 02:34:35;;;;;;;13.4;17.7;;;;;;;1.9;81.7;96430;;;;
2021/11/27 02:45:35;;;;;;;14.7;18.9;;;;;;;2;81.6;96420;;;;
2021/11/27 02:55:35;;;;;;;14.7;18.9;;;;;;;2.1;81;96450;;;;
2021/11/27 03:06:35;;;;;;;14.7;18.9;;;;;;;2.1;80.8;96470;;;;
2021/11/27 03:16:38;;;;;;;16.1;19.7;;;;;;;2.1;80.9;96500;;;;
2021/11/27 03:27:35;;;;;;;16.1;19.7;;;;;;;1.9;80.7;96500;;;;
2021/11/27 03:37:35;;;;;;;16.1;19.7;;;;;;;1.9;80.9;96520;;;;
2021/11/27 03:48:35;;;;;;;20.6;24.9;;;;;;;1.9;80.9;96530;;;;
2021/11/27 03:59:36;;;;;;;20.6;24.9;;;;;;;2;81.1;96550;;;;
2021/11/27 04:10:35;;;;;;;18.9;22.3;;;;;;;2.2;80.6;96560;;;;
2021/11/27 04:21:35;;;;;;;18.9;22.3;;;;;;;2.3;80.1;96580;;;;
2021/11/27 04:32:35;;;;;;;18.9;22.3;;;;;;;2.3;79.8;96580;;;;
2021/11/27 04:42:35;;;;;;;14.4;17.4;;;;;;;2.5;79.4;96580;;;;
2021/11/27 04:52:35;;;;;;;14.4;17.4;;;;;;;2.5;79.1;96580;;;;
2021/11/27 05:03:35;;;;;;;14.4;17.4;;;;;;;2.5;78.5;96580;;;;
2021/11/27 05:13:39;;;;;;;10.2;13.4;;;;;;;2.7;78.4;96600;;;;
2021/11/27 05:23:35;;;;;;;10.2;13.4;;;;;;;2.7;78.7;96610;;;;
2021/11/27 05:33:47;;;;;;;10.2;13.4;;;;;;;2.8;78.4;96600;;;;
2021/11/27 05:43:35;;;;;;;11.4;13.9;;;;;;;2.8;78.3;96610;;;;
2021/11/27 05:53:35;;;;;;;11.4;13.9;;;;;;;2.8;78.1;96620;;;;
2021/11/27 06:03:35;;;;;;;11.4;13.9;;;;;;;2.7;78.2;96630;;;;
2021/11/27 06:13:35;;;;;;;9.9;12.8;;;;;;;2.9;77.8;96640;;;;
2021/11/27 06:23:35;;;;;;;9.9;12.8;;;;;;;2.9;77.8;96650;;;;
2021/11/27 06:33:35;;;;;;;9.9;12.8;;;;;;;3.1;77.1;96650;;;;
2021/11/27 06:43:35;;;;;;;10.4;12.9;;;;;;;3.3;77.3;96650;;;;
2021/11/27 06:54:35;;;;;;;10.4;12.9;;;;;;;3.5;76.8;96660;;;;
2021/11/27 07:05:35;;;;;;;10.4;12.9;;;;;;;3.6;76.8;96680;;;;
2021/11/27 07:15:35;;;;;;;12.4;15.7;;;;;;;3.7;76.7;96680;;;;
2021/11/27 07:25:35;;;;;;;12.4;15.7;;;;;;;3.7;76.8;96700;;;;
2021/11/27 07:35:35;;;;;;;12.4;15.7;;;;;;;3.8;76.8;96710;;;;
2021/11/27 07:46:35;;;;;;;14.9;17.7;;;;;;;4.1;75.8;96700;;;;
2021/11/27 07:56:35;;;;;;;14.9;17.7;;;;;;;4.4;74.9;96710;;;;
2021/11/27 08:07:36;;;;;;;14.9;17.7;;;;;;;4.6;74;96720;;;;
2021/11/27 08:18:35;;;;;;;15.8;17.6;;;;;;;4.6;73.9;96720;;;;
2021/11/27 08:28:35;;;;;;;15.8;17.6;;;;;;;4.7;73.5;96730;;;;
2021/11/27 08:39:35;;;;;;;17.6;21.1;;;;;;;4.6;73.9;96760;;;;
2021/11/27 08:50:35;;;;;;;17.6;21.1;;;;;;;5;73.7;96780;;;;
2021/11/27 09:01:35;;;;;;;17.6;21.1;;;;;;;5;72.6;96780;;;;
2021/11/27 09:12:35;;;;;;;19.9;26.1;;;;;;;5.2;72.4;96780;;;;
2021/11/27 09:22:35;;;;;;;19.9;26.1;;;;;;;5.3;72.7;96790;;;;
2021/11/27 09:33:35;;;;;;;19.9;26.1;;;;;;;5.4;71.6;96770;;;;
2021/11/27 09:43:35;;;;;;;27.3;32.4;;;;;;;5.4;71.9;96790;;;;
2021/11/27 09:53:35;;;;;;;27.3;32.4;;;;;;;5.8;71.1;96790;;;;
2021/11/27 10:03:35;;;;;;;27.3;32.4;;;;;;;5.7;70.6;96800;;;;
2021/11/27 10:14:35;;;;;;;23.8;27.9;;;;;;;5.6;70.6;96800;;;;
2021/11/27 10:24:35;;;;;;;23.8;27.9;;;;;;;5.7;71.2;96800;;;;
2021/11/27 10:34:35;;;;;;;23.8;27.9;;;;;;;5.9;70.1;96810;;;;
2021/11/27 10:45:35;;;;;;;24.6;30;;;;;;;6.1;69.4;96800;;;;
2021/11/27 10:55:35;;;;;;;24.6;30;;;;;;;6.2;69.5;96800;;;;
2021/11/27 11:06:35;;;;;;;24.6;30;;;;;;;6.6;67;96780;;;;
2021/11/27 11:16:35;;;;;;;22;25.6;;;;;;;6.7;67;96800;;;;
2021/11/27 11:26:35;;;;;;;22;25.6;;;;;;;6.7;65;96790;;;;
2021/11/27 11:36:35;;;;;;;22;25.6;;;;;;;6.7;59.1;96790;;;;
2021/11/27 11:47:35;;;;;;;9.9;12.8;;;;;;;6.4;57;96790;;;;
2021/11/27 11:57:35;;;;;;;9.9;12.8;;;;;;;6.4;58.9;96780;;;;
2021/11/27 12:08:35;;;;;;;4.9;6.9;;;;;;;6.3;58.1;96780;;;;
2021/11/27 12:19:36;;;;;;;4.9;6.9;;;;;;;6.3;59.5;96800;;;;
2021/11/27 12:29:35;;;;;;;4.9;6.9;;;;;;;6.2;59.2;96800;;;;
2021/11/27 12:39:35;;;;;;;6.1;9;;;;;;;6.3;60.3;96800;;;;
2021/11/27 12:49:35;;;;;;;6.1;9;;;;;;;6.4;57.2;96810;;;;
2021/11/27 12:59:36;;;;;;;6.1;9;;;;;;;6.2;59.5;96820;;;;
2021/11/27 13:09:35;;;;;;;6.9;10.4;;;;;;;6.1;59.8;96810;;;;
2021/11/27 13:20:35;;;;;;;6.9;10.4;;;;;;;6.4;60.7;96810;;;;
2021/11/27 13:31:35;;;;;;;6.9;10.4;;;;;;;6.4;61;96820;;;;
2021/11/27 13:41:35;;;;;;;9;13;;;;;;;6.4;60.3;96810;;;;
2021/11/27 13:52:35;;;;;;;9;13;;;;;;;6;62.6;96810;;;;
2021/11/27 14:03:35;;;;;;;9;13;;;;;;;6;63.6;96810;;;;
2021/11/27 14:14:35;;;;;;;9.8;15;;;;;;;5.7;63.9;96810;;;;
2021/11/27 14:24:35;;;;;;;9.8;15;;;;;;;5.7;63.7;96810;;;;
2021/11/27 14:34:37;;;;;;;9.8;15;;;;;;;5.5;67.2;96820;;;;
2021/11/27 14:45:35;;;;;;;10.8;14.5;;;;;;;5.4;66.6;96820;;;;
2021/11/27 14:55:35;;;;;;;10.8;14.5;;;;;;;5.3;66.6;96820;;;;
2021/11/27 15:05:37;;;;;;;10.8;14.5;;;;;;;5.2;66.7;96810;;;;
2021/11/27 15:16:35;;;;;;;25.3;29.9;;;;;;;5.1;66.7;96820;;;;
2021/11/27 15:27:35;;;;;;;25.3;29.9;;;;;;;5.1;66.9;96830;;;;
2021/11/27 15:38:35;;;;;;;25.9;31.8;;;;;;;5.1;67.2;96800;;;;
2021/11/27 15:48:36;;;;;;;25.9;31.8;;;;;;;4.9;67.6;96790;;;;
2021/11/27 15:59:35;;;;;;;25.9;31.8;;;;;;;4.6;69.9;96780;;;;
2021/11/27 16:09:35;;;;;;;42.4;51.4;;;;;;;4.8;70.2;96800;;;;
2021/11/27 16:20:35;;;;;;;42.4;51.4;;;;;;;4.8;70.6;96800;;;;
2021/11/27 16:30:35;;;;;;;42.4;51.4;;;;;;;4.8;72.3;96800;;;;
2021/11/27 16:40:35;;;;;;;39.6;45;;;;;;;4.7;73.8;96820;;;;
2021/11/27 16:51:38;;;;;;;39.6;45;;;;;;;4.8;73.7;96830;;;;
2021/11/27 17:02:38;;;;;;;39.6;45;;;;;;;4.7;73.7;96830;;;;
2021/11/27 17:13:35;;;;;;;41;50.9;;;;;;;4.8;73.6;96830;;;;
2021/11/27 17:23:35;;;;;;;41;50.9;;;;;;;4.9;73.5;96850;;;;
2021/11/27 17:34:36;;;;;;;41;50.9;;;;;;;4.8;74;96840;;;;
2021/11/27 17:45:35;;;;;;;52;62.9;;;;;;;4.8;74.4;96860;;;;
2021/11/27 17:55:35;;;;;;;52;62.9;;;;;;;4.9;74.3;96880;;;;
2021/11/27 18:05:35;;;;;;;52;62.9;;;;;;;4.7;75.8;96900;;;;
2021/11/27 18:16:37;;;;;;;50.1;65.2;;;;;;;4.9;75.4;96900;;;;
2021/11/27 18:27:11;;;;;;;50.1;65.2;;;;;;;4.7;75.9;96910;;;;
2021/11/27 18:36:35;;;;;;;42.4;49.6;;;;;;;4.7;76.7;96920;;;;
2021/11/27 18:46:35;;;;;;;42.4;49.6;;;;;;;4.7;77.3;96940;;;;
2021/11/27 18:56:37;;;;;;;42.4;49.6;;;;;;;4.8;77.1;96950;;;;
2021/11/27 19:06:35;;;;;;;60.1;75.1;;;;;;;4.9;77.1;96950;;;;
2021/11/27 19:17:36;;;;;;;60.1;75.1;;;;;;;4.9;77.2;96960;;;;
2021/11/27 19:28:36;;;;;;;60.1;75.1;;;;;;;4.8;77.5;96970;;;;
2021/11/27 19:38:35;;;;;;;37.8;42.3;;;;;;;4.8;77.8;96980;;;;
2021/11/27 19:49:35;;;;;;;37.8;42.3;;;;;;;4.7;78.6;96980;;;;
2021/11/27 19:59:35;;;;;;;37.8;42.3;;;;;;;4.7;78.2;96980;;;;
2021/11/27 20:10:38;;;;;;;34.1;39.8;;;;;;;4.7;78.1;96990;;;;
2021/11/27 20:21:35;;;;;;;34.1;39.8;;;;;;;4.6;78.6;97000;;;;
2021/11/27 20:32:35;;;;;;;34.1;39.8;;;;;;;4.6;78.8;97000;;;;
2021/11/27 20:42:35;;;;;;;35.3;41.7;;;;;;;4.6;79.1;97020;;;;
2021/11/27 20:52:35;;;;;;;35.3;41.7;;;;;;;4.6;79.3;97010;;;;
2021/11/27 21:02:35;;;;;;;35.3;41.7;;;;;;;4.7;79.1;97010;;;;
2021/11/27 21:12:35;;;;;;;52.2;59.3;;;;;;;4.7;79.1;97000;;;;
2021/11/27 21:23:35;;;;;;;52.2;59.3;;;;;;;4.7;78.8;96990;;;;
2021/11/27 21:33:35;;;;;;;52.2;59.3;;;;;;;4.5;80;97000;;;;
2021/11/27 21:43:35;;;;;;;47.8;55.6;;;;;;;4.5;79.4;97000;;;;
2021/11/27 21:53:35;;;;;;;47.8;55.6;;;;;;;4.4;79;96990;;;;
2021/11/27 22:04:35;;;;;;;47.8;55.6;;;;;;;3.9;80;96970;;;;
2021/11/27 22:15:35;;;;;;;55.7;63.3;;;;;;;4;79.2;96980;;;;
2021/11/27 22:26:37;;;;;;;55.7;63.3;;;;;;;3.8;79.6;96960;;;;
2021/11/27 22:36:35;;;;;;;53;61.3;;;;;;;3.7;78.9;96960;;;;
2021/11/27 22:47:35;;;;;;;53;61.3;;;;;;;3.5;78.8;96960;;;;
2021/11/27 22:57:35;;;;;;;53;61.3;;;;;;;3.3;78.9;96970;;;;
2021/11/27 23:07:35;;;;;;;54.2;65.7;;;;;;;3.1;80.2;96970;;;;
2021/11/27 23:17:35;;;;;;;54.2;65.7;;;;;;;3;81.3;96960;;;;
2021/11/27 23:28:35;;;;;;;54.2;65.7;;;;;;;3.3;80.9;96970;;;;
2021/11/27 23:39:35;;;;;;;58;73.5;;;;;;;3.2;81.1;96950;;;;
2021/11/27 23:49:35;;;;;;;58;73.5;;;;;;;3.4;80.8;96930;;;;
2021/11/27 23:59:42;;;;;;;58;73.5;;;;;;;3.3;81.2;96940;;;;
